Ana Sayfa
METAR-TAF:

METAR-TAF

Havaalanları :

Rome State Airport

Rome, Oregon, Amerika Birleşik Devletleri

Enlem: 42-35-26N, Boylam: 117-51-52W, yükseklik: 1234 m

Güncel hava durumu gözlemi

Rapor saat 11:52 UTC de 41 dakika önce yapıldı.
Rüzgar güney/güneydoğudan 6 kt
Sıcaklık 9°C
Nem 57%
Basınç 1016 hPa

METAR: KREO 161152Z AUTO 16006KT 09/01 A2999 RMK AO1 SLP123 T00890006 10128 20089 53002

Saat: 06:33 (12:33 UTC)


TAF: eksik

4.000'den fazla havaalanı için hava durumu gözlemleri ve tahminleri (METAR ve TAF raporları).

Kullanılabilir istasyonlar harita üzerinde sarı ve kırmızı noktalarla gösterilir.

İstasyonun adını görmek için fareyi noktanın üzerinde gezdirin.

Sonrasında hava gözlem ve tahminlerini görmek için tıklayın.

Haritayı değiştirmek için: yaklaştırmak için siyah artı işaretli yeşil düğmeye ve uzaklaştırmak için de eksi işaretli düğmeye hızla tıklayın; bitişik haritalar için yeşil okları kullanın.


METAR-TAF: